Polaris — JD2797 — position and weather

sailwx.info

Track history (hours):
 
Tides and Currents Weather Stations Pressure Air Temp Water Temp Dewpoint Dewpoint Depression Visibility Wind Speed Wind Dir Waves Ship Positions

Polaris

Last reported at 2014-Dec-15 22:32 UTC. Time now 2014-Dec-17 23:19 UTC.
Position N 35°29' E 139°39'.

Length 30 m; draft 2.6 m.

Type: Pilot. MMSI: 431000764.

Date/timePositionNaut miles runAvg speedWind from/ knotsBaromVisibWave heightAir tempDewpointWater temp
2014-Dec-15 22:32N 35°29' E 139°39'0 0.0
2014-Dec-15 07:27N 35°29' E 139°39'0 0.0
2014-Dec-15 06:34N 35°29' E 139°39'0 0.0
2014-Dec-15 05:33N 35°29' E 139°39'0 0.0
2014-Dec-15 04:34N 35°29' E 139°39'0 0.0
2014-Dec-15 03:34N 35°29' E 139°39'0 0.0
2014-Dec-15 02:20N 35°29' E 139°39'0 0.0
2014-Dec-15 00:14N 35°29' E 139°39'2 3.5
2014-Dec-14 23:34N 35°27' E 139°41'9 8.8
2014-Dec-14 22:34N 35°19' E 139°38'0 0.0
2014-Dec-14 08:09N 35°18' E 139°39'810.1
2014-Dec-14 07:19N 35°13' E 139°46'1012.6
2014-Dec-14 06:33N 35°22' E 139°42'1 1.4
2014-Dec-14 05:33N 35°21' E 139°42'3 3.3
2014-Dec-14 04:31N 35°19' E 139°38'0 0.0
2014-Dec-14 03:21N 35°19' E 139°38'0 0.0
2014-Dec-14 02:33N 35°19' E 139°38'0 0.0
2014-Dec-14 01:31N 35°19' E 139°38'1 0.8
2014-Dec-14 00:33N 35°19' E 139°39'5 4.6
2014-Dec-13 23:33N 35°21' E 139°45'8 5.7
2014-Dec-13 22:13N 35°13' E 139°46'8 0.2
2014-Dec-12 07:32N 35°19' E 139°39'5 5.0
2014-Dec-12 06:27N 35°17' E 139°45'8 7.7
2014-Dec-12 05:25N 35°25' E 139°45'8 8.3
2014-Dec-12 04:25N 35°19' E 139°38'0 0.0
2014-Dec-11 10:18N 35°19' E 139°38'0 0.2
2014-Dec-11 09:23N 35°18' E 139°39'910.4
2014-Dec-11 08:32N 35°25' E 139°46'9 4.5
2014-Dec-11 06:29N 35°15' E 139°45'6 4.9
2014-Dec-11 05:09N 35°19' E 139°38'0 0.0
2014-Dec-11 04:16N 35°19' E 139°38'0 0.0
2014-Dec-11 03:25N 35°19' E 139°38'0 0.0
2014-Dec-11 02:28N 35°19' E 139°38'0 0.0
2014-Dec-11 01:30N 35°19' E 139°38'0 0.0
2014-Dec-11 00:18N 35°19' E 139°38'0 0.0
2014-Dec-10 18:16N 35°19' E 139°38'0 0.0
2014-Dec-09 22:26N 35°19' E 139°38'9 9.7
2014-Dec-09 21:34N 35°24' E 139°46'9 4.7
2014-Dec-09 19:32N 35°15' E 139°45'7 6.7
2014-Dec-09 18:32N 35°19' E 139°38'0 0.0
2014-Dec-08 18:26N 35°19' E 139°38'8 8.1
2014-Dec-08 17:26N 35°14' E 139°46'1213.1
2014-Dec-08 16:33N 35°25' E 139°44'2 1.5
2014-Dec-08 15:34N 35°27' E 139°43'9 9.0
2014-Dec-08 14:33N 35°19' E 139°38'0 0.0
2014-Dec-08 12:17N 35°19' E 139°38'0 0.0
2014-Dec-08 11:33N 35°19' E 139°38'0 0.0
2014-Dec-08 10:20N 35°19' E 139°38'0 0.0
2014-Dec-08 09:31N 35°19' E 139°38'0 0.0
2014-Dec-08 08:33N 35°19' E 139°38'0 0.0
2014-Dec-06 14:32N 35°18' E 139°39'7 7.1
2014-Dec-06 13:33N 35°15' E 139°46'1212.1
2014-Dec-06 12:33N 35°27' E 139°43'1 1.2
2014-Dec-06 11:33N 35°27' E 139°41'1 1.5
2014-Dec-06 10:33N 35°27' E 139°40'0 0.0
2014-Dec-06 09:33N 35°27' E 139°40'5 5.2
2014-Dec-06 08:33N 35°25' E 139°46'10 5.2
2014-Dec-06 06:33N 35°15' E 139°45'7 0.9
2014-Dec-05 23:11N 35°19' E 139°38'711.2
2014-Dec-05 22:34N 35°25' E 139°42'  
Track history (hours):
 
Tides and Currents Weather Stations Pressure Air Temp Water Temp Dewpoint Dewpoint Depression Visibility Wind Speed Wind Dir Waves Ship Positions

Polaris

Last reported at 2014-Dec-15 22:32 UTC. Time now 2014-Dec-17 23:19 UTC.
Position N 35°29' E 139°39'.

Length 30 m; draft 2.6 m.

Type: Pilot. MMSI: 431000764.

Date/timePositionNaut miles runAvg speedWind from/ knotsBaromVisibWave heightAir tempDewpointWater temp
2014-Dec-15 22:32N 35°29' E 139°39'0 0.0
2014-Dec-15 07:27N 35°29' E 139°39'0 0.0
2014-Dec-15 06:34N 35°29' E 139°39'0 0.0
2014-Dec-15 05:33N 35°29' E 139°39'0 0.0
2014-Dec-15 04:34N 35°29' E 139°39'0 0.0
2014-Dec-15 03:34N 35°29' E 139°39'0 0.0
2014-Dec-15 02:20N 35°29' E 139°39'0 0.0
2014-Dec-15 00:14N 35°29' E 139°39'2 3.5
2014-Dec-14 23:34N 35°27' E 139°41'9 8.8
2014-Dec-14 22:34N 35°19' E 139°38'0 0.0
2014-Dec-14 08:09N 35°18' E 139°39'810.1
2014-Dec-14 07:19N 35°13' E 139°46'1012.6
2014-Dec-14 06:33N 35°22' E 139°42'1 1.4
2014-Dec-14 05:33N 35°21' E 139°42'3 3.3
2014-Dec-14 04:31N 35°19' E 139°38'0 0.0
2014-Dec-14 03:21N 35°19' E 139°38'0 0.0
2014-Dec-14 02:33N 35°19' E 139°38'0 0.0
2014-Dec-14 01:31N 35°19' E 139°38'1 0.8
2014-Dec-14 00:33N 35°19' E 139°39'5 4.6
2014-Dec-13 23:33N 35°21' E 139°45'8 5.7
2014-Dec-13 22:13N 35°13' E 139°46'8 0.2
2014-Dec-12 07:32N 35°19' E 139°39'5 5.0
2014-Dec-12 06:27N 35°17' E 139°45'8 7.7
2014-Dec-12 05:25N 35°25' E 139°45'8 8.3
2014-Dec-12 04:25N 35°19' E 139°38'0 0.0
2014-Dec-11 10:18N 35°19' E 139°38'0 0.2
2014-Dec-11 09:23N 35°18' E 139°39'910.4
2014-Dec-11 08:32N 35°25' E 139°46'9 4.5
2014-Dec-11 06:29N 35°15' E 139°45'6 4.9
2014-Dec-11 05:09N 35°19' E 139°38'0 0.0
2014-Dec-11 04:16N 35°19' E 139°38'0 0.0
2014-Dec-11 03:25N 35°19' E 139°38'0 0.0
2014-Dec-11 02:28N 35°19' E 139°38'0 0.0
2014-Dec-11 01:30N 35°19' E 139°38'0 0.0
2014-Dec-11 00:18N 35°19' E 139°38'0 0.0
2014-Dec-10 18:16N 35°19' E 139°38'0 0.0
2014-Dec-09 22:26N 35°19' E 139°38'9 9.7
2014-Dec-09 21:34N 35°24' E 139°46'9 4.7
2014-Dec-09 19:32N 35°15' E 139°45'7 6.7
2014-Dec-09 18:32N 35°19' E 139°38'0 0.0
2014-Dec-08 18:26N 35°19' E 139°38'8 8.1
2014-Dec-08 17:26N 35°14' E 139°46'1213.1
2014-Dec-08 16:33N 35°25' E 139°44'2 1.5
2014-Dec-08 15:34N 35°27' E 139°43'9 9.0
2014-Dec-08 14:33N 35°19' E 139°38'0 0.0
2014-Dec-08 12:17N 35°19' E 139°38'0 0.0
2014-Dec-08 11:33N 35°19' E 139°38'0 0.0
2014-Dec-08 10:20N 35°19' E 139°38'0 0.0
2014-Dec-08 09:31N 35°19' E 139°38'0 0.0
2014-Dec-08 08:33N 35°19' E 139°38'0 0.0
2014-Dec-06 14:32N 35°18' E 139°39'7 7.1
2014-Dec-06 13:33N 35°15' E 139°46'1212.1
2014-Dec-06 12:33N 35°27' E 139°43'1 1.2
2014-Dec-06 11:33N 35°27' E 139°41'1 1.5
2014-Dec-06 10:33N 35°27' E 139°40'0 0.0
2014-Dec-06 09:33N 35°27' E 139°40'5 5.2
2014-Dec-06 08:33N 35°25' E 139°46'10 5.2
2014-Dec-06 06:33N 35°15' E 139°45'7 0.9
2014-Dec-05 23:11N 35°19' E 139°38'711.2
2014-Dec-05 22:34N 35°25' E 139°42'  

Dump ship's entire track history